createdAt,value
2023-02-27T00:01:04.700Z,6.50
2023-02-27T00:07:07.390Z,6.40
2023-02-27T00:13:10.557Z,5.77
2023-02-27T00:19:13.559Z,6.00
2023-02-27T00:25:15.612Z,6.73
2023-02-27T00:31:17.411Z,6.23
2023-02-27T00:37:19.351Z,6.53
2023-02-27T00:43:21.554Z,6.73
2023-02-27T00:49:23.337Z,5.93
2023-02-27T00:55:27.165Z,6.10
2023-02-27T01:01:29.577Z,5.67
2023-02-27T01:07:31.725Z,7.03
2023-02-27T01:13:35.533Z,6.10
2023-02-27T01:19:37.536Z,6.20
2023-02-27T01:25:40.460Z,5.90
2023-02-27T01:31:42.374Z,5.90
2023-02-27T01:37:44.918Z,4.80
2023-02-27T01:44:02.864Z,4.67
2023-02-27T01:50:05.820Z,4.93
2023-02-27T01:56:29.375Z,5.37
2023-02-27T02:02:39.462Z,4.83
2023-02-27T02:08:53.811Z,4.53
2023-02-27T02:14:59.387Z,4.67
2023-02-27T02:21:15.088Z,4.37
2023-02-27T02:27:47.145Z,3.80
2023-02-27T02:41:04.626Z,3.83
2023-02-27T02:47:32.208Z,4.27
2023-02-27T02:54:02.826Z,3.50
2023-02-27T03:00:31.752Z,3.50
2023-02-27T03:06:38.822Z,3.70
2023-02-27T03:12:54.328Z,3.37
2023-02-27T03:19:09.733Z,3.47
2023-02-27T03:25:15.333Z,3.47
2023-02-27T03:31:28.186Z,3.40
2023-02-27T03:37:43.851Z,4.43
2023-02-27T03:44:08.878Z,4.17
2023-02-27T03:50:13.348Z,4.00
2023-02-27T03:56:20.834Z,3.87
2023-02-27T04:02:24.312Z,3.53
2023-02-27T04:08:32.777Z,3.50
2023-02-27T04:14:58.308Z,3.90
2023-02-27T04:21:20.848Z,4.40
2023-02-27T04:27:41.388Z,4.00
2023-02-27T04:34:07.953Z,4.40
2023-02-27T04:40:20.438Z,4.53
2023-02-27T04:46:28.118Z,3.80
2023-02-27T04:52:32.649Z,3.67
2023-02-27T04:59:04.133Z,4.00
2023-02-27T05:05:11.557Z,4.40
2023-02-27T05:11:26.301Z,4.27
2023-02-27T05:17:53.689Z,3.80
2023-02-27T05:24:11.138Z,3.83
2023-02-27T05:30:25.663Z,4.60
2023-02-27T05:37:08.281Z,6.87
2023-02-27T05:43:27.616Z,5.23
2023-02-27T05:49:40.447Z,5.03
2023-02-27T05:55:56.717Z,6.30
2023-02-27T06:02:13.820Z,6.10
2023-02-27T06:08:48.805Z,7.67
2023-02-27T06:14:44.424Z,6.40
2023-02-27T06:20:47.880Z,5.37
2023-02-27T06:26:55.990Z,4.23
2023-02-27T06:33:07.851Z,4.67
2023-02-27T06:40:11.742Z,5.37
2023-02-27T06:45:55.146Z,4.27
2023-02-27T06:52:15.105Z,3.80
2023-02-27T06:58:54.345Z,3.47
2023-02-27T07:05:15.090Z,3.57
2023-02-27T07:18:26.115Z,4.33
2023-02-27T07:24:36.709Z,4.70
2023-02-27T07:30:46.657Z,3.27
2023-02-27T07:36:49.165Z,3.70
2023-02-27T07:49:36.282Z,3.50
2023-02-27T07:56:28.635Z,3.80
2023-02-27T08:02:31.268Z,4.50
2023-02-27T08:08:33.873Z,3.53
2023-02-27T08:14:39.358Z,4.13
2023-02-27T08:20:53.894Z,3.80
2023-02-27T08:27:07.601Z,3.77
2023-02-27T08:33:09.577Z,4.47
2023-02-27T08:39:12.316Z,5.23
2023-02-27T08:45:20.002Z,4.93
2023-02-27T08:51:30.483Z,4.87
2023-02-27T09:17:10.552Z,5.13
2023-02-27T09:29:58.711Z,6.23
2023-02-27T09:42:50.752Z,7.53
2023-02-27T09:55:41.896Z,6.90
2023-02-27T10:02:15.644Z,6.67
2023-02-27T10:08:37.673Z,8.27
2023-02-27T10:14:50.438Z,6.90
2023-02-27T10:21:15.992Z,7.10
2023-02-27T10:27:40.005Z,5.80
2023-02-27T10:33:46.613Z,7.27
2023-02-27T10:39:55.545Z,7.17
2023-02-27T10:46:05.043Z,8.00
2023-02-27T10:52:14.411Z,7.70
2023-02-27T10:58:22.671Z,7.33
2023-02-27T11:04:30.504Z,7.83
2023-02-27T11:10:32.898Z,9.37
2023-02-27T11:16:51.415Z,8.83
2023-02-27T11:23:12.952Z,8.90
2023-02-27T11:29:20.424Z,9.30
2023-02-27T11:35:33.922Z,9.93
2023-02-27T11:41:36.065Z,10.47
2023-02-27T11:47:43.853Z,9.70
2023-02-27T11:54:07.369Z,10.53
2023-02-27T12:00:27.913Z,10.10
2023-02-27T12:06:46.419Z,9.73
2023-02-27T12:12:53.977Z,10.33
2023-02-27T12:19:31.605Z,9.50
2023-02-27T12:25:58.085Z,10.60
2023-02-27T12:32:25.774Z,10.87
2023-02-27T12:38:28.467Z,9.07
2023-02-27T12:44:52.668Z,10.33
2023-02-27T12:51:27.554Z,9.83
2023-02-27T12:57:53.818Z,10.37
2023-02-27T13:04:17.415Z,9.73
2023-02-27T13:10:33.862Z,9.83
2023-02-27T13:16:46.469Z,10.17
2023-02-27T13:22:59.907Z,10.27
2023-02-27T13:29:03.355Z,8.60
2023-02-27T13:35:23.868Z,10.63
2023-02-27T13:41:26.690Z,10.13
2023-02-27T13:47:41.847Z,11.13
2023-02-27T13:53:45.291Z,9.90
2023-02-27T13:59:56.839Z,10.50
2023-02-27T14:06:05.318Z,10.67
2023-02-27T14:12:30.964Z,11.70
2023-02-27T14:18:58.399Z,10.50
2023-02-27T14:25:22.552Z,12.40
2023-02-27T14:31:26.762Z,9.40
2023-02-27T14:37:31.880Z,9.63
2023-02-27T14:43:46.210Z,10.50
2023-02-27T14:49:48.407Z,13.07
2023-02-27T14:55:57.331Z,12.87
2023-02-27T15:02:04.887Z,12.30
2023-02-27T15:08:15.621Z,12.60
2023-02-27T15:14:47.919Z,14.40
2023-02-27T15:20:59.431Z,12.10
2023-02-27T15:27:06.593Z,11.50
2023-02-27T15:33:16.766Z,11.67
2023-02-27T15:39:21.800Z,11.20
2023-02-27T15:45:35.609Z,12.10
2023-02-27T15:51:37.732Z,10.70
2023-02-27T15:57:42.142Z,9.40
2023-02-27T16:03:48.399Z,9.80
2023-02-27T16:09:56.993Z,9.10
2023-02-27T16:16:07.173Z,9.03
2023-02-27T16:22:19.586Z,8.97
2023-02-27T16:28:21.315Z,9.30
2023-02-27T16:34:46.656Z,9.07
2023-02-27T16:40:48.669Z,8.30
2023-02-27T16:46:57.066Z,8.63
2023-02-27T16:52:59.134Z,9.07
2023-02-27T16:59:02.775Z,9.37
2023-02-27T17:05:06.029Z,9.13
2023-02-27T17:11:08.139Z,9.07
2023-02-27T17:17:12.462Z,8.07
2023-02-27T17:23:14.925Z,8.17
2023-02-27T17:29:16.715Z,7.23
2023-02-27T17:35:18.777Z,8.73
2023-02-27T17:41:20.567Z,8.23
2023-02-27T17:47:22.741Z,8.17
2023-02-27T17:53:25.221Z,8.50
2023-02-27T17:59:27.737Z,8.30
2023-02-27T18:05:29.473Z,10.27
2023-02-27T18:11:31.818Z,9.70
2023-02-27T18:17:33.627Z,8.70
2023-02-27T18:23:36.479Z,8.67
2023-02-27T18:29:38.721Z,8.00
2023-02-27T18:35:40.848Z,8.07
2023-02-27T18:41:42.909Z,7.40
2023-02-27T18:47:45.377Z,8.87
2023-02-27T18:53:50.833Z,10.50
2023-02-27T18:59:53.741Z,9.50
2023-02-27T19:05:55.740Z,8.67
2023-02-27T19:11:57.549Z,8.37
2023-02-27T19:17:59.239Z,9.23
2023-02-27T19:24:02.146Z,12.80
2023-02-27T19:30:05.096Z,10.10
2023-02-27T19:36:15.132Z,9.57
2023-02-27T19:42:16.941Z,9.07
2023-02-27T19:48:20.054Z,9.43
2023-02-27T19:54:21.853Z,10.37
2023-02-27T20:00:26.726Z,10.50
2023-02-27T20:06:30.957Z,8.80
2023-02-27T20:12:32.898Z,9.10
2023-02-27T20:18:36.341Z,9.33
2023-02-27T20:24:38.578Z,9.27
2023-02-27T20:30:40.423Z,8.47
2023-02-27T20:36:43.569Z,9.60
2023-02-27T20:42:45.337Z,9.27
2023-02-27T20:48:47.366Z,9.40
2023-02-27T20:54:49.038Z,8.87
2023-02-27T21:00:51.561Z,10.20
2023-02-27T21:06:54.704Z,9.23
2023-02-27T21:12:56.598Z,8.87
2023-02-27T21:18:59.137Z,10.00
2023-02-27T21:25:00.942Z,9.57
2023-02-27T21:31:06.209Z,8.33
2023-02-27T21:37:10.016Z,10.60
2023-02-27T21:43:11.878Z,9.77
2023-02-27T21:49:28.361Z,8.80
2023-02-27T21:55:30.149Z,10.00
2023-02-27T22:01:32.437Z,10.13
2023-02-27T22:07:34.467Z,10.00
2023-02-27T22:13:37.001Z,9.43
2023-02-27T22:19:38.972Z,8.57
2023-02-27T22:25:43.735Z,9.03
2023-02-27T22:31:46.128Z,10.83
2023-02-27T22:37:47.939Z,12.27
2023-02-27T22:43:50.344Z,11.37
2023-02-27T22:49:52.490Z,9.50
2023-02-27T22:55:58.413Z,10.43
2023-02-27T23:02:00.860Z,9.50
2023-02-27T23:08:03.323Z,9.60
2023-02-27T23:14:05.169Z,9.70
2023-02-27T23:20:07.165Z,8.63
2023-02-27T23:26:09.723Z,9.30
2023-02-27T23:32:11.542Z,9.17
2023-02-27T23:38:13.617Z,7.57
2023-02-27T23:44:16.066Z,7.83
2023-02-27T23:50:21.059Z,7.83
2023-02-27T23:56:25.742Z,7.63
